Time;durP1;ratioP1;P1;durP2;ratioP2;P2;SDS_P1;SDS_P2;PMS_P1;PMS_P2;Temp;Humidity;BMP_temperature;BMP_pressure;BME280_temperature;BME280_humidity;BME280_pressure;Samples;Min_cycle;Max_cycle;Signal;HPM_P1;HPM_P2
2022/11/09 00:01:00;;;;;;;5.15;3.30;;;;;;;;;;5022670;28;20058;-90
2022/11/09 00:03:25;;;;;;;5.32;2.80;;;;;;;;;;5022703;28;20036;-90
2022/11/09 00:05:55;;;;;;;4.55;2.45;;;;;;;;;;5021447;28;20028;-89
2022/11/09 00:08:23;;;;;;;3.70;2.33;;;;;;;;;;5018904;28;20033;-90
2022/11/09 00:10:48;;;;;;;4.80;2.38;;;;;;;;;;5019275;28;20068;-90
2022/11/09 00:13:15;;;;;;;4.00;2.60;;;;;;;;;;5019249;28;20037;-90
2022/11/09 00:15:44;;;;;;;3.67;2.05;;;;;;;;;;5002938;28;20062;-89
2022/11/09 00:18:11;;;;;;;4.10;2.45;;;;;;;;;;5019146;28;20478;-90
2022/11/09 00:20:42;;;;;;;4.45;2.55;;;;;;;;;;5002737;28;20025;-90
2022/11/09 00:23:07;;;;;;;4.70;2.80;;;;;;;;;;5019173;28;20029;-90
2022/11/09 00:25:34;;;;;;;3.88;2.30;;;;;;;;;;5002546;28;20033;-89
2022/11/09 00:28:02;;;;;;;5.35;2.58;;;;;;;;;;5035429;28;20029;-90
2022/11/09 00:30:31;;;;;;;4.35;2.50;;;;;;;;;;5002411;28;20043;-90
2022/11/09 00:32:58;;;;;;;3.97;2.00;;;;;;;;;;5018903;28;20040;-90
2022/11/09 00:35:26;;;;;;;4.30;2.25;;;;;;;;;;4998739;28;20029;-89
2022/11/09 00:37:53;;;;;;;3.85;2.45;;;;;;;;;;5032166;28;20053;-90
2022/11/09 00:40:18;;;;;;;4.47;2.78;;;;;;;;;;4998857;28;20052;-90
2022/11/09 00:42:50;;;;;;;4.75;2.70;;;;;;;;;;4998983;28;20029;-90
2022/11/09 00:45:17;;;;;;;3.17;1.90;;;;;;;;;;4998972;28;20064;-89
2022/11/09 00:47:43;;;;;;;3.88;2.13;;;;;;;;;;5015131;28;20068;-90
2022/11/09 00:50:08;;;;;;;3.65;2.10;;;;;;;;;;5007530;28;20032;-90
2022/11/09 00:52:37;;;;;;;4.20;2.28;;;;;;;;;;5022040;28;20107;-89
2022/11/09 00:55:06;;;;;;;5.82;2.38;;;;;;;;;;5021887;28;20029;-90
2022/11/09 00:57:34;;;;;;;4.05;2.08;;;;;;;;;;5021786;28;20562;-89
2022/11/09 01:00:00;;;;;;;4.30;2.47;;;;;;;;;;5038652;28;20095;-90
2022/11/09 01:02:28;;;;;;;3.63;1.90;;;;;;;;;;5022436;28;20089;-90
2022/11/09 01:04:55;;;;;;;3.92;2.08;;;;;;;;;;5038271;28;20033;-90
2022/11/09 01:07:21;;;;;;;3.15;1.90;;;;;;;;;;5022074;28;20479;-89
2022/11/09 01:09:47;;;;;;;4.28;2.05;;;;;;;;;;5022572;28;20031;-90
2022/11/09 01:12:14;;;;;;;3.83;2.03;;;;;;;;;;5022031;28;20131;-90
2022/11/09 01:14:39;;;;;;;3.83;2.20;;;;;;;;;;5022046;28;20035;-90
2022/11/09 01:17:04;;;;;;;5.20;1.98;;;;;;;;;;5022245;28;20021;-90
2022/11/09 01:19:33;;;;;;;3.88;2.28;;;;;;;;;;5041839;28;20139;-90
2022/11/09 01:22:01;;;;;;;3.80;2.10;;;;;;;;;;5042580;28;20119;-88
2022/11/09 01:24:28;;;;;;;4.13;2.13;;;;;;;;;;5005049;28;20076;-89
2022/11/09 01:26:54;;;;;;;3.40;1.90;;;;;;;;;;4986386;28;20124;-90
2022/11/09 01:29:22;;;;;;;3.92;2.00;;;;;;;;;;4986648;28;20027;-89
2022/11/09 01:31:48;;;;;;;3.72;1.90;;;;;;;;;;4986413;28;20033;-90
2022/11/09 01:34:16;;;;;;;4.28;2.08;;;;;;;;;;4986353;28;20128;-89
2022/11/09 01:36:44;;;;;;;4.30;2.03;;;;;;;;;;4987032;28;20041;-90
2022/11/09 01:39:10;;;;;;;3.72;1.85;;;;;;;;;;4986213;28;20071;-89
2022/11/09 01:41:36;;;;;;;4.22;2.22;;;;;;;;;;4990146;28;20107;-88
2022/11/09 01:44:03;;;;;;;3.40;2.05;;;;;;;;;;5025314;28;20036;-90
2022/11/09 01:46:44;;;;;;;4.75;2.03;;;;;;;;;;5041855;28;20058;-90
2022/11/09 01:49:40;;;;;;;2.78;1.63;;;;;;;;;;5043239;28;20021;-90
2022/11/09 01:52:35;;;;;;;3.92;1.70;;;;;;;;;;5041703;28;20036;-90
2022/11/09 01:55:06;;;;;;;2.60;1.63;;;;;;;;;;5043434;28;20527;-90
2022/11/09 01:57:43;;;;;;;3.57;1.87;;;;;;;;;;5025412;28;20051;-89
2022/11/09 02:00:13;;;;;;;3.42;1.70;;;;;;;;;;5024946;28;20283;-90
2022/11/09 02:02:42;;;;;;;4.25;2.10;;;;;;;;;;5041403;28;20036;-89
2022/11/09 02:05:13;;;;;;;3.72;1.67;;;;;;;;;;5041106;28;20056;-91
2022/11/09 02:07:40;;;;;;;3.03;1.50;;;;;;;;;;5024858;28;20115;-91
2022/11/09 02:11:07;;;;;;;3.28;1.65;;;;;;;;;;5024926;28;20028;-90
2022/11/09 02:13:33;;;;;;;3.35;1.63;;;;;;;;;;4963151;28;20034;-90
2022/11/09 02:16:01;;;;;;;3.75;1.73;;;;;;;;;;5038225;28;20063;-89
2022/11/09 02:18:29;;;;;;;3.40;1.50;;;;;;;;;;5041551;28;20060;-90
2022/11/09 02:20:57;;;;;;;3.20;1.77;;;;;;;;;;5041126;28;20044;-90
2022/11/09 02:23:25;;;;;;;4.25;1.73;;;;;;;;;;5031800;28;20082;-90
2022/11/09 02:25:56;;;;;;;2.22;1.40;;;;;;;;;;5021116;28;20032;-90
2022/11/09 02:28:24;;;;;;;2.80;1.40;;;;;;;;;;5005693;28;20029;-90
2022/11/09 02:30:50;;;;;;;3.50;1.75;;;;;;;;;;5020379;28;20040;-89
2022/11/09 02:33:17;;;;;;;2.75;1.38;;;;;;;;;;5004664;28;20120;-90
2022/11/09 02:35:43;;;;;;;2.92;1.60;;;;;;;;;;5004960;28;20037;-90
2022/11/09 02:38:11;;;;;;;3.38;1.83;;;;;;;;;;5021061;28;20044;-90
2022/11/09 02:40:37;;;;;;;2.63;1.50;;;;;;;;;;5004538;28;20562;-89
2022/11/09 02:43:04;;;;;;;3.15;1.30;;;;;;;;;;5004650;28;20032;-90
2022/11/09 02:45:32;;;;;;;2.78;1.42;;;;;;;;;;5004809;28;20032;-90
2022/11/09 02:48:00;;;;;;;4.45;1.45;;;;;;;;;;5004437;28;20040;-90
2022/11/09 02:50:25;;;;;;;2.60;1.38;;;;;;;;;;5004254;28;20029;-90
2022/11/09 02:52:54;;;;;;;2.72;1.23;;;;;;;;;;5004154;28;20037;-90
2022/11/09 02:55:22;;;;;;;3.63;1.55;;;;;;;;;;5020535;28;20108;-90
2022/11/09 02:57:51;;;;;;;2.88;1.50;;;;;;;;;;5020703;28;20081;-89
2022/11/09 03:00:17;;;;;;;2.67;1.42;;;;;;;;;;5003977;28;20025;-90
2022/11/09 03:02:44;;;;;;;2.63;1.17;;;;;;;;;;5004267;28;20029;-90
2022/11/09 03:05:11;;;;;;;4.40;1.42;;;;;;;;;;5004068;28;20037;-90
2022/11/09 03:07:40;;;;;;;2.72;1.38;;;;;;;;;;5003891;28;20036;-89
2022/11/09 03:10:11;;;;;;;2.85;1.40;;;;;;;;;;5020542;28;20036;-90
2022/11/09 03:12:39;;;;;;;2.92;1.50;;;;;;;;;;5004388;28;20043;-89
2022/11/09 03:15:10;;;;;;;3.28;1.75;;;;;;;;;;5003842;28;20037;-90
2022/11/09 03:17:37;;;;;;;3.83;1.45;;;;;;;;;;5020251;28;20060;-90
2022/11/09 03:20:03;;;;;;;2.53;1.40;;;;;;;;;;5003794;28;20067;-90
2022/11/09 03:22:30;;;;;;;2.47;1.20;;;;;;;;;;5003668;28;20045;-90
2022/11/09 03:24:58;;;;;;;2.08;1.02;;;;;;;;;;5003974;28;20021;-90
2022/11/09 03:27:25;;;;;;;2.67;1.15;;;;;;;;;;5019968;28;20028;-90
2022/11/09 03:29:51;;;;;;;2.63;1.13;;;;;;;;;;5003608;28;20029;-90
2022/11/09 03:32:18;;;;;;;2.00;0.90;;;;;;;;;;5003822;28;20078;-90
2022/11/09 03:34:43;;;;;;;2.28;0.98;;;;;;;;;;5003130;28;20043;-90
2022/11/09 03:37:10;;;;;;;2.50;1.23;;;;;;;;;;5036538;28;20041;-90
2022/11/09 03:39:36;;;;;;;2.25;1.13;;;;;;;;;;5019899;28;20021;-90
2022/11/09 03:42:02;;;;;;;2.28;1.20;;;;;;;;;;5009054;28;20044;-90
2022/11/09 03:44:27;;;;;;;2.42;1.20;;;;;;;;;;5022592;28;20033;-90
2022/11/09 03:46:52;;;;;;;3.17;1.40;;;;;;;;;;5023041;28;20036;-91
2022/11/09 03:49:19;;;;;;;3.05;1.60;;;;;;;;;;5056238;28;20041;-92
2022/11/09 03:51:46;;;;;;;2.25;0.93;;;;;;;;;;5022898;28;20036;-91
2022/11/09 03:54:13;;;;;;;4.53;1.70;;;;;;;;;;5023135;28;20020;-92
2022/11/09 03:56:40;;;;;;;2.83;1.30;;;;;;;;;;5023073;28;20086;-92
2022/11/09 03:59:09;;;;;;;3.05;1.40;;;;;;;;;;5023179;28;20413;-92
2022/11/09 04:01:34;;;;;;;3.20;1.10;;;;;;;;;;5023160;28;20062;-92
2022/11/09 04:04:00;;;;;;;2.45;1.02;;;;;;;;;;5022229;28;20024;-92
2022/11/09 04:06:25;;;;;;;2.70;1.00;;;;;;;;;;5022291;28;20436;-92
2022/11/09 04:08:51;;;;;;;3.85;1.48;;;;;;;;;;5022356;28;20024;-92
2022/11/09 04:11:20;;;;;;;2.17;1.17;;;;;;;;;;5023035;28;20119;-92
2022/11/09 04:13:48;;;;;;;2.65;1.15;;;;;;;;;;5039197;28;20433;-92
2022/11/09 04:16:17;;;;;;;1.60;0.80;;;;;;;;;;5022803;28;20040;-92
2022/11/09 04:18:43;;;;;;;2.97;1.20;;;;;;;;;;5039340;28;20029;-91
2022/11/09 04:21:12;;;;;;;1.90;1.10;;;;;;;;;;5023242;28;20043;-93
2022/11/09 04:23:38;;;;;;;2.67;1.08;;;;;;;;;;5028182;28;20033;-91
2022/11/09 04:26:05;;;;;;;3.65;1.38;;;;;;;;;;5002847;28;20376;-92
2022/11/09 04:28:30;;;;;;;2.35;1.00;;;;;;;;;;5019421;28;20033;-92
2022/11/09 04:30:59;;;;;;;1.95;0.85;;;;;;;;;;4999268;28;20045;-92
2022/11/09 04:33:28;;;;;;;2.13;0.88;;;;;;;;;;4999625;28;20025;-92
2022/11/09 04:36:03;;;;;;;3.08;1.05;;;;;;;;;;4999536;28;20033;-92
2022/11/09 04:38:32;;;;;;;2.03;0.80;;;;;;;;;;5016277;28;20080;-93
2022/11/09 04:41:02;;;;;;;2.67;1.00;;;;;;;;;;4999373;28;20087;-92
2022/11/09 04:43:32;;;;;;;3.75;1.27;;;;;;;;;;4999238;28;20118;-92
2022/11/09 04:46:00;;;;;;;2.38;0.95;;;;;;;;;;4999169;28;20056;-92
2022/11/09 04:48:26;;;;;;;3.17;1.20;;;;;;;;;;4999503;28;20140;-92
2022/11/09 04:50:58;;;;;;;2.38;1.10;;;;;;;;;;4999440;28;20033;-92
2022/11/09 04:53:26;;;;;;;;;;;;;;;;;;4983351;28;20071;-92
2022/11/09 04:55:54;;;;;;;3.03;1.10;;;;;;;;;;4999526;28;19908;-92
2022/11/09 04:58:22;;;;;;;2.65;1.35;;;;;;;;;;4999088;28;20496;-92
2022/11/09 05:00:47;;;;;;;2.00;0.82;;;;;;;;;;4999047;28;20082;-92
2022/11/09 05:03:13;;;;;;;1.92;0.90;;;;;;;;;;4999270;28;20029;-92
2022/11/09 05:05:41;;;;;;;2.15;0.93;;;;;;;;;;4982619;28;20094;-94
2022/11/09 05:08:07;;;;;;;2.25;1.17;;;;;;;;;;4999099;28;20124;-93
2022/11/09 05:10:33;;;;;;;2.10;0.70;;;;;;;;;;4999024;28;20112;-93
2022/11/09 05:13:02;;;;;;;1.77;0.85;;;;;;;;;;4998825;28;20040;-92
2022/11/09 05:15:28;;;;;;;2.47;0.75;;;;;;;;;;4999390;28;20037;-92
2022/11/09 05:17:54;;;;;;;2.58;0.95;;;;;;;;;;4999195;28;20136;-91
2022/11/09 05:20:26;;;;;;;2.65;0.90;;;;;;;;;;4999284;28;20022;-91
2022/11/09 05:25:37;;;;;;;1.25;0.57;;;;;;;;;;5037192;28;19912;-91
2022/11/09 05:28:03;;;;;;;2.42;0.80;;;;;;;;;;5001827;28;20035;-91
2022/11/09 05:30:28;;;;;;;1.70;0.70;;;;;;;;;;5001845;28;20228;-90
2022/11/09 05:32:54;;;;;;;2.15;0.75;;;;;;;;;;5002154;28;20064;-91
2022/11/09 05:35:21;;;;;;;2.85;0.80;;;;;;;;;;5001983;28;20028;-91
2022/11/09 05:37:47;;;;;;;2.33;0.80;;;;;;;;;;5002240;28;20021;-91
2022/11/09 05:40:14;;;;;;;2.20;0.75;;;;;;;;;;5002242;28;20028;-92
2022/11/09 05:42:42;;;;;;;1.70;0.80;;;;;;;;;;5002210;28;20037;-91
2022/11/09 05:45:09;;;;;;;1.90;0.70;;;;;;;;;;5018209;28;20039;-91
2022/11/09 05:47:38;;;;;;;2.90;1.35;;;;;;;;;;5002205;28;20025;-92
2022/11/09 05:50:05;;;;;;;1.50;0.70;;;;;;;;;;5002238;28;20164;-91
2022/11/09 05:52:31;;;;;;;2.05;0.57;;;;;;;;;;5002118;28;20080;-91
2022/11/09 05:54:57;;;;;;;1.65;0.70;;;;;;;;;;5001823;28;20075;-92
2022/11/09 05:57:23;;;;;;;1.88;0.65;;;;;;;;;;5001694;28;20029;-92
2022/11/09 05:59:49;;;;;;;2.15;0.80;;;;;;;;;;5001796;28;20041;-91
2022/11/09 06:02:15;;;;;;;2.10;0.82;;;;;;;;;;5002136;28;20027;-92
2022/11/09 06:04:44;;;;;;;1.17;0.60;;;;;;;;;;5001859;28;20033;-91
2022/11/09 06:07:15;;;;;;;1.83;0.90;;;;;;;;;;5021610;28;20092;-91
2022/11/09 06:09:42;;;;;;;1.85;0.90;;;;;;;;;;5005809;28;20398;-90
2022/11/09 06:12:08;;;;;;;1.63;0.77;;;;;;;;;;5005558;28;20132;-91
2022/11/09 06:14:35;;;;;;;1.45;0.50;;;;;;;;;;5004937;28;20039;-91
2022/11/09 06:17:01;;;;;;;1.50;0.50;;;;;;;;;;5005205;28;20060;-91
2022/11/09 06:19:33;;;;;;;1.30;0.60;;;;;;;;;;5002045;28;20116;-92
2022/11/09 06:21:59;;;;;;;1.17;0.70;;;;;;;;;;5001816;28;20387;-92
2022/11/09 06:24:25;;;;;;;1.23;0.45;;;;;;;;;;5018803;28;20129;-92
2022/11/09 06:26:53;;;;;;;1.80;0.77;;;;;;;;;;5004856;28;20029;-92
2022/11/09 06:29:20;;;;;;;1.65;0.70;;;;;;;;;;5021226;28;20456;-91
2022/11/09 06:31:50;;;;;;;1.65;0.70;;;;;;;;;;5004903;28;20388;-92
2022/11/09 06:34:15;;;;;;;2.72;0.70;;;;;;;;;;5005055;28;20028;-92
2022/11/09 06:36:41;;;;;;;1.95;0.60;;;;;;;;;;5004855;28;20025;-92
2022/11/09 06:39:09;;;;;;;1.60;0.45;;;;;;;;;;5004797;28;20035;-92
2022/11/09 06:41:38;;;;;;;1.52;0.57;;;;;;;;;;5004536;28;20035;-91
2022/11/09 06:44:05;;;;;;;3.90;1.27;;;;;;;;;;5020584;28;20111;-91
2022/11/09 06:46:31;;;;;;;2.35;0.70;;;;;;;;;;5004159;28;20029;-86
2022/11/09 06:49:00;;;;;;;2.20;0.60;;;;;;;;;;5004730;28;20114;-90
2022/11/09 06:51:26;;;;;;;2.47;0.80;;;;;;;;;;5004691;28;20077;-91
2022/11/09 06:53:53;;;;;;;3.40;0.88;;;;;;;;;;5004280;28;20064;-87
2022/11/09 06:56:18;;;;;;;3.03;0.85;;;;;;;;;;5036263;28;20029;-86
2022/11/09 06:58:45;;;;;;;4.65;1.02;;;;;;;;;;5019661;28;20060;-88
2022/11/09 07:01:15;;;;;;;3.30;0.80;;;;;;;;;;5003796;28;20029;-88
2022/11/09 07:03:42;;;;;;;3.53;0.70;;;;;;;;;;5020306;28;20025;-89
2022/11/09 07:06:08;;;;;;;2.67;1.00;;;;;;;;;;5020238;28;20021;-88
2022/11/09 07:08:34;;;;;;;4.35;0.70;;;;;;;;;;5003515;28;20059;-88
2022/11/09 07:11:10;;;;;;;2.00;0.80;;;;;;;;;;5003910;28;20467;-88
2022/11/09 07:13:36;;;;;;;5.32;0.82;;;;;;;;;;5016204;28;20037;-88
2022/11/09 07:16:02;;;;;;;3.63;1.20;;;;;;;;;;4999861;28;20033;-88
2022/11/09 07:18:28;;;;;;;2.38;1.15;;;;;;;;;;4994316;28;20033;-88
2022/11/09 07:20:55;;;;;;;2.03;0.68;;;;;;;;;;4984360;28;20032;-88
2022/11/09 07:23:21;;;;;;;2.40;0.60;;;;;;;;;;5008849;28;20028;-88
2022/11/09 07:25:47;;;;;;;1.90;0.50;;;;;;;;;;5019548;28;20391;-88
2022/11/09 07:28:13;;;;;;;1.52;0.60;;;;;;;;;;5019188;28;20032;-88
2022/11/09 07:30:39;;;;;;;1.48;0.50;;;;;;;;;;5003330;28;20060;-89
2022/11/09 07:33:13;;;;;;;1.85;0.75;;;;;;;;;;5019690;28;20108;-88
2022/11/09 07:35:40;;;;;;;1.70;0.82;;;;;;;;;;5003369;28;20021;-88
2022/11/09 07:38:07;;;;;;;2.30;0.93;;;;;;;;;;5003285;28;20064;-88
2022/11/09 07:40:34;;;;;;;1.65;0.80;;;;;;;;;;5003469;28;20036;-88
2022/11/09 07:43:00;;;;;;;2.05;0.57;;;;;;;;;;5016378;28;20028;-88
2022/11/09 07:45:27;;;;;;;2.03;0.75;;;;;;;;;;5022772;28;20060;-89
2022/11/09 07:47:57;;;;;;;2.53;1.02;;;;;;;;;;5022797;28;20060;-89
2022/11/09 07:50:24;;;;;;;2.55;0.93;;;;;;;;;;5055739;28;20481;-88
2022/11/09 07:52:50;;;;;;;2.17;0.70;;;;;;;;;;5039272;28;20036;-89
2022/11/09 07:55:17;;;;;;;0.82;0.45;;;;;;;;;;5022255;28;20025;-88
2022/11/09 07:57:43;;;;;;;2.33;0.70;;;;;;;;;;5022234;28;20062;-88
2022/11/09 08:00:10;;;;;;;3.20;0.70;;;;;;;;;;5039040;28;20107;-88
2022/11/09 08:02:37;;;;;;;1.55;0.65;;;;;;;;;;5022552;28;20045;-88
2022/11/09 08:05:03;;;;;;;1.95;0.60;;;;;;;;;;5038717;28;20028;-87
2022/11/09 08:07:32;;;;;;;2.45;1.00;;;;;;;;;;5022306;28;20037;-88
2022/11/09 08:09:58;;;;;;;2.10;0.68;;;;;;;;;;5039760;28;20433;-88
2022/11/09 08:12:24;;;;;;;3.15;0.80;;;;;;;;;;5021913;28;20044;-89
2022/11/09 08:14:52;;;;;;;1.75;0.60;;;;;;;;;;5038381;28;20036;-87
2022/11/09 08:17:18;;;;;;;2.97;1.02;;;;;;;;;;5055330;28;20044;-88
2022/11/09 08:19:43;;;;;;;1.88;0.73;;;;;;;;;;5032040;28;20030;-87
2022/11/09 08:22:09;;;;;;;1.00;0.43;;;;;;;;;;4999518;28;20038;-88
2022/11/09 08:24:34;;;;;;;2.05;0.60;;;;;;;;;;5014249;28;20399;-88
2022/11/09 08:27:01;;;;;;;2.47;0.50;;;;;;;;;;5014575;28;20103;-88
2022/11/09 08:29:27;;;;;;;1.38;0.50;;;;;;;;;;5031419;28;20040;-88
2022/11/09 08:31:53;;;;;;;2.05;0.60;;;;;;;;;;5015112;28;20056;-88
2022/11/09 08:34:20;;;;;;;1.77;0.60;;;;;;;;;;5015066;28;20037;-88
2022/11/09 08:36:46;;;;;;;1.45;0.60;;;;;;;;;;4998655;28;20039;-88
2022/11/09 08:39:13;;;;;;;1.90;0.40;;;;;;;;;;4999100;28;20034;-88
2022/11/09 08:41:44;;;;;;;2.55;0.50;;;;;;;;;;5014594;28;20033;-88
2022/11/09 08:44:10;;;;;;;1.13;0.60;;;;;;;;;;4998575;28;20029;-87
2022/11/09 08:46:35;;;;;;;1.25;0.40;;;;;;;;;;5014775;28;20037;-87
2022/11/09 08:49:05;;;;;;;2.13;0.70;;;;;;;;;;5014921;28;20072;-87
2022/11/09 08:51:32;;;;;;;1.38;0.60;;;;;;;;;;5014944;28;20030;-87
2022/11/09 08:53:59;;;;;;;1.38;0.70;;;;;;;;;;4998618;28;20392;-87
2022/11/09 08:56:26;;;;;;;2.33;0.57;;;;;;;;;;5014798;28;20428;-87
2022/11/09 08:58:51;;;;;;;1.75;0.80;;;;;;;;;;5014780;28;20041;-87
2022/11/09 09:01:17;;;;;;;1.25;0.40;;;;;;;;;;5014215;28;20045;-87
2022/11/09 09:03:43;;;;;;;1.45;0.40;;;;;;;;;;5014395;28;20403;-87
2022/11/09 09:06:10;;;;;;;1.95;0.45;;;;;;;;;;5014332;28;20034;-87
2022/11/09 09:08:36;;;;;;;1.77;0.65;;;;;;;;;;5014418;28;20044;-86
2022/11/09 09:11:03;;;;;;;1.55;0.55;;;;;;;;;;4998221;28;20426;-87
2022/11/09 09:13:30;;;;;;;1.20;0.60;;;;;;;;;;4997676;28;20033;-87
2022/11/09 09:15:55;;;;;;;2.45;0.65;;;;;;;;;;5008839;28;20025;-87
2022/11/09 09:18:22;;;;;;;2.08;0.73;;;;;;;;;;5011020;28;20040;-88
2022/11/09 09:20:47;;;;;;;1.60;0.60;;;;;;;;;;5045530;28;20056;-86
2022/11/09 09:23:15;;;;;;;2.05;0.60;;;;;;;;;;5008678;28;20099;-86
2022/11/09 09:25:41;;;;;;;1.80;0.68;;;;;;;;;;4981690;28;20488;-86
2022/11/09 09:28:06;;;;;;;2.13;0.70;;;;;;;;;;4996509;28;20042;-86
2022/11/09 09:30:33;;;;;;;1.65;0.50;;;;;;;;;;4997475;28;20045;-86
2022/11/09 09:32:59;;;;;;;1.73;0.57;;;;;;;;;;4981412;28;20040;-86
2022/11/09 09:35:26;;;;;;;2.03;0.88;;;;;;;;;;4997893;28;20037;-87
2022/11/09 09:37:53;;;;;;;1.70;0.57;;;;;;;;;;5013928;28;20042;-86
2022/11/09 09:40:25;;;;;;;2.00;0.50;;;;;;;;;;5000807;28;20056;-86
2022/11/09 09:42:52;;;;;;;1.30;0.43;;;;;;;;;;5017637;28;20075;-87
2022/11/09 09:45:19;;;;;;;1.88;0.60;;;;;;;;;;5001405;28;20039;-87
2022/11/09 09:47:50;;;;;;;1.48;0.50;;;;;;;;;;5001746;28;20030;-86
2022/11/09 09:50:25;;;;;;;1.88;0.63;;;;;;;;;;5001560;28;20038;-87
2022/11/09 09:53:10;;;;;;;2.65;0.50;;;;;;;;;;5001400;28;20033;-86
2022/11/09 09:55:41;;;;;;;1.73;0.50;;;;;;;;;;5002069;28;20029;-86
2022/11/09 09:58:25;;;;;;;2.50;0.40;;;;;;;;;;5001200;28;20025;-86
2022/11/09 10:00:51;;;;;;;1.73;0.40;;;;;;;;;;5003111;28;20060;-85
2022/11/09 10:03:18;;;;;;;1.33;0.45;;;;;;;;;;5001558;28;20025;-87
2022/11/09 10:06:08;;;;;;;2.58;0.40;;;;;;;;;;5000826;28;20075;-86
2022/11/09 10:09:03;;;;;;;1.75;0.40;;;;;;;;;;5019338;28;20037;-86
2022/11/09 10:11:46;;;;;;;2.05;0.60;;;;;;;;;;5013037;28;20396;-86
2022/11/09 10:14:23;;;;;;;1.83;0.75;;;;;;;;;;5017373;28;20595;-86
2022/11/09 10:16:55;;;;;;;2.15;0.50;;;;;;;;;;5001542;28;20038;-86
2022/11/09 10:19:25;;;;;;;2.70;0.90;;;;;;;;;;5051879;28;20068;-86
2022/11/09 10:21:54;;;;;;;1.63;0.40;;;;;;;;;;5070224;28;20103;-86
2022/11/09 10:24:38;;;;;;;2.20;0.50;;;;;;;;;;5020545;28;20037;-85
2022/11/09 10:27:12;;;;;;;1.20;0.57;;;;;;;;;;5036605;28;20087;-86
2022/11/09 10:29:42;;;;;;;1.60;0.40;;;;;;;;;;5004804;28;20029;-87
2022/11/09 10:32:19;;;;;;;2.25;0.55;;;;;;;;;;5020866;28;20808;-86
2022/11/09 10:35:06;;;;;;;1.67;0.60;;;;;;;;;;5036616;28;20399;-85
2022/11/09 10:37:42;;;;;;;2.13;0.47;;;;;;;;;;5004858;28;20421;-86
2022/11/09 10:40:08;;;;;;;1.45;0.60;;;;;;;;;;5004426;28;20033;-82
2022/11/09 10:42:33;;;;;;;1.50;0.50;;;;;;;;;;5035465;28;20376;-82
2022/11/09 10:45:06;;;;;;;1.27;0.35;;;;;;;;;;5019451;28;20040;-82
2022/11/09 10:47:44;;;;;;;1.98;0.60;;;;;;;;;;5004409;28;20029;-81
2022/11/09 10:50:16;;;;;;;1.98;0.60;;;;;;;;;;5004123;28;20033;-81
2022/11/09 10:52:41;;;;;;;1.90;0.60;;;;;;;;;;5035684;28;20057;-81
2022/11/09 10:55:27;;;;;;;1.77;0.47;;;;;;;;;;5019615;28;20051;-82
2022/11/09 10:58:00;;;;;;;2.08;0.38;;;;;;;;;;5002817;28;20123;-82
2022/11/09 11:00:25;;;;;;;1.35;0.47;;;;;;;;;;5035891;28;20036;-81
2022/11/09 11:02:52;;;;;;;1.55;0.40;;;;;;;;;;5019565;28;20056;-81
2022/11/09 11:05:17;;;;;;;1.67;0.50;;;;;;;;;;5018865;28;20475;-81
2022/11/09 11:07:43;;;;;;;2.80;0.70;;;;;;;;;;5052273;28;20036;-82
2022/11/09 11:10:14;;;;;;;2.42;0.50;;;;;;;;;;5003072;28;20033;-82
2022/11/09 11:12:44;;;;;;;1.73;0.60;;;;;;;;;;5053295;28;20499;-81
2022/11/09 11:15:23;;;;;;;2.20;0.80;;;;;;;;;;5003299;28;20028;-82
2022/11/09 11:17:48;;;;;;;2.65;0.40;;;;;;;;;;5024180;28;20016;-81
2022/11/09 11:20:24;;;;;;;6.28;0.85;;;;;;;;;;5036609;28;20087;-81
2022/11/09 11:22:49;;;;;;;5.63;1.00;;;;;;;;;;5035812;28;20051;-81
2022/11/09 11:25:19;;;;;;;4.20;1.05;;;;;;;;;;5035028;28;20033;-81
2022/11/09 11:27:53;;;;;;;4.63;1.13;;;;;;;;;;5018949;28;20033;-81
2022/11/09 11:30:27;;;;;;;6.85;1.20;;;;;;;;;;5034386;28;20037;-80
2022/11/09 11:32:56;;;;;;;3.67;1.20;;;;;;;;;;5018810;28;20120;-80
2022/11/09 11:35:27;;;;;;;4.93;2.92;;;;;;;;;;5017295;28;20039;-81
2022/11/09 11:38:21;;;;;;;6.07;2.50;;;;;;;;;;5035333;28;20094;-81
2022/11/09 11:41:00;;;;;;;7.50;3.00;;;;;;;;;;5035072;28;20048;-81
2022/11/09 11:43:44;;;;;;;11.75;4.97;;;;;;;;;;5002728;28;20028;-81
2022/11/09 11:46:40;;;;;;;12.68;6.93;;;;;;;;;;5052027;28;20037;-81
2022/11/09 11:49:41;;;;;;;41.95;29.08;;;;;;;;;;5050144;28;20048;-81
2022/11/09 11:52:17;;;;;;;87.72;65.45;;;;;;;;;;5019880;28;20037;-81
2022/11/09 11:54:59;;;;;;;91.45;70.65;;;;;;;;;;5017834;28;20048;-81
2022/11/09 11:57:32;;;;;;;98.97;77.95;;;;;;;;;;5018194;28;20033;-81
2022/11/09 12:00:08;;;;;;;97.22;77.43;;;;;;;;;;5034580;28;20037;-81
2022/11/09 12:02:51;;;;;;;106.55;85.25;;;;;;;;;;5033494;28;20096;-81
2022/11/09 12:05:46;;;;;;;111.15;86.50;;;;;;;;;;5034336;28;20036;-81
2022/11/09 12:08:17;;;;;;;105.30;84.05;;;;;;;;;;5051006;28;20028;-81
2022/11/09 12:11:00;;;;;;;106.47;84.30;;;;;;;;;;5018765;28;20051;-81
2022/11/09 12:13:30;;;;;;;113.20;87.15;;;;;;;;;;5018939;28;20036;-81
2022/11/09 12:16:03;;;;;;;113.82;84.93;;;;;;;;;;5050701;28;20033;-81
2022/11/09 12:18:34;;;;;;;111.53;82.18;;;;;;;;;;5030359;28;20498;-81
2022/11/09 12:21:19;;;;;;;107.95;80.85;;;;;;;;;;5014764;28;20057;-81
2022/11/09 12:23:53;;;;;;;108.97;82.05;;;;;;;;;;5042723;28;20064;-81
2022/11/09 12:26:50;;;;;;;139.15;104.82;;;;;;;;;;5034021;28;20080;-83
2022/11/09 12:29:20;;;;;;;151.82;111.30;;;;;;;;;;5017860;28;20033;-83
2022/11/09 12:32:19;;;;;;;151.07;109.03;;;;;;;;;;5017871;28;20094;-83
2022/11/09 12:34:56;;;;;;;129.77;99.63;;;;;;;;;;5014960;28;20056;-84
2022/11/09 12:37:27;;;;;;;130.35;92.85;;;;;;;;;;5000227;28;20047;-83
2022/11/09 12:39:53;;;;;;;124.45;91.38;;;;;;;;;;5033075;28;20049;-84
2022/11/09 12:42:25;;;;;;;121.28;84.65;;;;;;;;;;5000938;28;20032;-83
2022/11/09 12:45:01;;;;;;;115.93;84.95;;;;;;;;;;4997909;28;20025;-83
2022/11/09 12:47:29;;;;;;;118.78;85.32;;;;;;;;;;5015526;28;20055;-83
2022/11/09 12:49:55;;;;;;;114.80;83.78;;;;;;;;;;5014192;28;20042;-83
2022/11/09 12:52:25;;;;;;;105.13;77.28;;;;;;;;;;4999278;28;20027;-83
2022/11/09 12:54:51;;;;;;;107.70;75.70;;;;;;;;;;4997054;28;20032;-83
2022/11/09 12:57:24;;;;;;;104.35;73.55;;;;;;;;;;5013565;28;20388;-84
2022/11/09 12:59:52;;;;;;;98.18;71.32;;;;;;;;;;4997507;28;20026;-84
2022/11/09 13:02:30;;;;;;;100.30;72.25;;;;;;;;;;4997319;28;20021;-84
2022/11/09 13:05:04;;;;;;;97.55;69.90;;;;;;;;;;5013830;28;20481;-85
2022/11/09 13:07:29;;;;;;;90.80;66.78;;;;;;;;;;5013875;28;20156;-85
2022/11/09 13:09:56;;;;;;;90.47;65.55;;;;;;;;;;5016886;28;20029;-84
2022/11/09 13:12:38;;;;;;;88.50;62.30;;;;;;;;;;5000545;28;20025;-83
2022/11/09 13:15:59;;;;;;;87.80;60.95;;;;;;;;;;5003262;28;20036;-84
2022/11/09 13:18:30;;;;;;;82.85;61.17;;;;;;;;;;5030182;28;20060;-84
2022/11/09 13:20:56;;;;;;;84.60;59.27;;;;;;;;;;5037346;28;20033;-84
2022/11/09 13:23:27;;;;;;;80.80;57.42;;;;;;;;;;5034661;28;20322;-83
2022/11/09 13:25:53;;;;;;;76.55;57.38;;;;;;;;;;5025445;28;20041;-84
2022/11/09 13:28:28;;;;;;;72.70;53.53;;;;;;;;;;5001377;28;20033;-82
2022/11/09 13:30:56;;;;;;;79.32;54.47;;;;;;;;;;5053076;28;20112;-83
2022/11/09 13:33:28;;;;;;;69.93;52.53;;;;;;;;;;5021314;28;20102;-82
2022/11/09 13:35:55;;;;;;;69.63;51.15;;;;;;;;;;5004678;28;20029;-82
2022/11/09 13:38:29;;;;;;;69.53;51.00;;;;;;;;;;5020902;28;20025;-82
2022/11/09 13:41:29;;;;;;;67.78;50.22;;;;;;;;;;5051813;28;20075;-83
2022/11/09 13:44:13;;;;;;;66.32;46.63;;;;;;;;;;5019642;28;20390;-83
2022/11/09 13:46:40;;;;;;;70.80;48.92;;;;;;;;;;5020005;28;20059;-86
2022/11/09 13:49:30;;;;;;;62.20;45.72;;;;;;;;;;5004460;28;20411;-82
2022/11/09 13:51:56;;;;;;;65.70;44.83;;;;;;;;;;5053914;28;20028;-82
2022/11/09 13:54:30;;;;;;;64.95;45.78;;;;;;;;;;5020686;28;20166;-82
2022/11/09 13:56:55;;;;;;;61.55;45.30;;;;;;;;;;5004215;28;20021;-81
2022/11/09 13:59:25;;;;;;;59.65;44.42;;;;;;;;;;5020423;28;20483;-82
2022/11/09 14:02:00;;;;;;;59.10;43.10;;;;;;;;;;5004133;28;20112;-82
2022/11/09 14:04:36;;;;;;;62.05;44.67;;;;;;;;;;5020244;28;20119;-82
2022/11/09 14:07:28;;;;;;;58.53;42.22;;;;;;;;;;5004240;28;20398;-82
2022/11/09 14:10:00;;;;;;;54.13;40.83;;;;;;;;;;5020483;28;20067;-82
2022/11/09 14:13:00;;;;;;;55.78;40.45;;;;;;;;;;5004364;28;20021;-81
2022/11/09 14:15:46;;;;;;;56.20;38.53;;;;;;;;;;5053204;28;20029;-82
2022/11/09 14:18:30;;;;;;;59.30;41.22;;;;;;;;;;5036197;28;20040;-82
2022/11/09 14:21:18;;;;;;;54.35;38.72;;;;;;;;;;5036365;28;20502;-82
2022/11/09 14:23:44;;;;;;;58.47;38.42;;;;;;;;;;5009056;28;20033;-83
2022/11/09 14:26:19;;;;;;;55.45;38.13;;;;;;;;;;4990277;28;20096;-82
2022/11/09 14:28:44;;;;;;;101.32;71.78;;;;;;;;;;5016701;28;20029;-82
2022/11/09 14:31:30;;;;;;;102.25;72.05;;;;;;;;;;5016444;28;20045;-82
2022/11/09 14:33:59;;;;;;;91.78;62.83;;;;;;;;;;5031894;28;20108;-82
2022/11/09 14:36:25;;;;;;;85.65;58.25;;;;;;;;;;5032481;28;20095;-82
2022/11/09 14:38:51;;;;;;;84.00;54.05;;;;;;;;;;5018128;28;20033;-82
2022/11/09 14:41:26;;;;;;;78.50;53.40;;;;;;;;;;5034558;28;20039;-83
2022/11/09 14:43:55;;;;;;;76.30;51.75;;;;;;;;;;5018132;28;20021;-82
2022/11/09 14:46:27;;;;;;;71.85;47.42;;;;;;;;;;5003327;28;20032;-82
2022/11/09 14:48:58;;;;;;;67.70;46.85;;;;;;;;;;5002491;28;20039;-83
2022/11/09 14:51:35;;;;;;;63.17;43.45;;;;;;;;;;5035895;28;20494;-83
2022/11/09 14:54:00;;;;;;;61.38;39.85;;;;;;;;;;5036103;28;20029;-83
2022/11/09 14:56:26;;;;;;;61.92;40.88;;;;;;;;;;4999195;28;20032;-83